Time;durP1;ratioP1;P1;durP2;ratioP2;P2;SDS_P1;SDS_P2;PMS_P1;PMS_P2;Temp;Humidity;BMP_temperature;BMP_pressure;BME280_temperature;BME280_humidity;BME280_pressure;Samples;Min_cycle;Max_cycle;Signal;HPM_P1;HPM_P2
2023/10/27 00:02:26;;;;;;;15.70;11.87;;;9.40;99.90;;;;;;5009780;28;20982;-57
2023/10/27 00:04:54;;;;;;;15.80;13.13;;;9.50;99.90;;;;;;5011155;28;20965;-57
2023/10/27 00:07:20;;;;;;;22.03;13.50;;;9.40;99.90;;;;;;5010786;28;20495;-57
2023/10/27 00:09:47;;;;;;;13.47;11.93;;;9.40;99.90;;;;;;5025372;28;21498;-56
2023/10/27 00:12:14;;;;;;;12.47;11.10;;;9.40;99.90;;;;;;5034283;28;20847;-56
2023/10/27 00:14:41;;;;;;;16.40;10.20;;;9.50;99.90;;;;;;5034564;28;20482;-56
2023/10/27 00:17:07;;;;;;;11.83;10.60;;;9.40;99.90;;;;;;5014267;28;20489;-56
2023/10/27 00:19:34;;;;;;;11.70;10.30;;;9.40;99.90;;;;;;4997529;28;20495;-56
2023/10/27 00:22:02;;;;;;;13.17;10.93;;;9.40;99.90;;;;;;4994855;28;20669;-56
2023/10/27 00:24:28;;;;;;;91.03;12.80;;;9.40;99.90;;;;;;5006207;28;20488;-56
2023/10/27 00:26:55;;;;;;;13.33;9.33;;;9.40;99.90;;;;;;5036212;28;20419;-56
2023/10/27 00:29:21;;;;;;;11.43;10.23;;;9.40;99.90;;;;;;5034377;28;20493;-56
2023/10/27 00:31:48;;;;;;;11.20;10.10;;;9.40;99.90;;;;;;5018564;28;20841;-56
2023/10/27 00:34:14;;;;;;;20.43;9.97;;;9.40;99.90;;;;;;4999905;28;20877;-56
2023/10/27 00:36:41;;;;;;;18.03;10.07;;;9.40;99.90;;;;;;4994480;28;20463;-57
2023/10/27 00:39:09;;;;;;;11.70;10.50;;;9.40;99.90;;;;;;5008850;28;20487;-56
2023/10/27 00:41:35;;;;;;;11.50;10.43;;;9.40;99.90;;;;;;5022152;28;20458;-56
2023/10/27 00:44:02;;;;;;;14.83;11.00;;;9.40;99.90;;;;;;5014294;28;20511;-57
2023/10/27 00:46:29;;;;;;;11.43;10.33;;;9.40;99.90;;;;;;5012890;28;20498;-56
2023/10/27 00:48:56;;;;;;;16.63;10.30;;;9.40;99.90;;;;;;5012792;28;20495;-56
2023/10/27 00:51:23;;;;;;;14.20;11.50;;;9.40;99.90;;;;;;4995089;28;20476;-56
2023/10/27 00:53:51;;;;;;;11.83;10.60;;;9.40;99.90;;;;;;5013662;28;20969;-56
2023/10/27 00:56:20;;;;;;;13.40;12.00;;;9.40;99.90;;;;;;5019478;28;20471;-55
2023/10/27 00:58:46;;;;;;;12.10;11.00;;;9.40;99.90;;;;;;5023032;28;20530;-56
2023/10/27 01:01:17;;;;;;;13.87;10.97;;;9.40;99.90;;;;;;5012488;28;20519;-56
2023/10/27 01:03:44;;;;;;;10.90;9.80;;;9.40;99.90;;;;;;5013177;28;20570;-57
2023/10/27 01:06:11;;;;;;;10.77;9.67;;;9.40;99.90;;;;;;5011931;28;20554;-56
2023/10/27 01:08:37;;;;;;;13.87;10.43;;;9.30;99.90;;;;;;5013899;28;20440;-57
2023/10/27 01:11:04;;;;;;;14.50;9.20;;;9.40;99.90;;;;;;5016194;28;20972;-55
2023/10/27 01:13:32;;;;;;;11.67;10.57;;;9.30;99.90;;;;;;5009285;28;20981;-56
2023/10/27 01:15:59;;;;;;;12.10;9.97;;;9.30;99.90;;;;;;5017328;28;20949;-57
2023/10/27 01:18:26;;;;;;;12.00;8.50;;;9.30;99.90;;;;;;5013149;28;20966;-56
2023/10/27 01:20:52;;;;;;;11.70;9.07;;;9.30;99.90;;;;;;5012296;28;20514;-56
2023/10/27 01:23:20;;;;;;;9.97;9.00;;;9.30;99.90;;;;;;5013242;28;20487;-57
2023/10/27 01:25:47;;;;;;;15.23;8.87;;;9.30;99.90;;;;;;5013191;28;20930;-55
2023/10/27 01:28:13;;;;;;;9.30;8.40;;;9.20;99.90;;;;;;5013152;28;20946;-56
2023/10/27 01:30:40;;;;;;;13.10;9.80;;;9.20;99.90;;;;;;5015529;28;20495;-56
2023/10/27 01:33:06;;;;;;;10.03;9.03;;;9.20;99.90;;;;;;5019478;28;20487;-56
2023/10/27 01:35:34;;;;;;;10.63;9.53;;;9.20;99.90;;;;;;5012874;28;20933;-56
2023/10/27 01:38:01;;;;;;;16.07;9.23;;;9.20;99.90;;;;;;5011820;28;20984;-56
2023/10/27 01:40:29;;;;;;;13.53;8.57;;;9.20;99.90;;;;;;5013235;28;20521;-57
2023/10/27 01:42:56;;;;;;;11.43;10.30;;;9.20;99.90;;;;;;5012838;28;20977;-56
2023/10/27 01:45:22;;;;;;;9.70;8.70;;;9.20;99.90;;;;;;5010836;28;20500;-56
2023/10/27 01:47:49;;;;;;;9.97;9.07;;;9.20;99.90;;;;;;5022433;28;20524;-55
2023/10/27 01:50:16;;;;;;;11.17;9.57;;;9.20;99.90;;;;;;5018211;28;20441;-56
2023/10/27 01:52:42;;;;;;;10.07;9.13;;;9.20;99.90;;;;;;5012798;28;20498;-56
2023/10/27 01:55:09;;;;;;;13.10;10.60;;;9.20;99.90;;;;;;5012017;28;20463;-57
2023/10/27 01:57:37;;;;;;;10.07;9.07;;;9.20;99.90;;;;;;5017374;28;20440;-57
2023/10/27 02:00:04;;;;;;;13.37;9.60;;;9.20;99.90;;;;;;5010207;28;20499;-56
2023/10/27 02:02:31;;;;;;;24.93;10.20;;;9.20;99.90;;;;;;5012298;28;20483;-56
2023/10/27 02:04:57;;;;;;;10.73;9.43;;;9.20;99.90;;;;;;5019330;28;20536;-55
2023/10/27 02:07:24;;;;;;;12.60;8.70;;;9.20;99.90;;;;;;5031999;28;20443;-56
2023/10/27 02:09:51;;;;;;;11.73;8.70;;;9.20;99.90;;;;;;5032407;28;20534;-56
2023/10/27 02:12:18;;;;;;;15.27;10.80;;;9.20;99.90;;;;;;5023741;28;21074;-56
2023/10/27 02:14:45;;;;;;;14.57;9.77;;;9.20;99.90;;;;;;5010045;28;21014;-56
2023/10/27 02:17:12;;;;;;;9.93;8.93;;;9.20;99.90;;;;;;5012324;28;20959;-56
2023/10/27 02:19:39;;;;;;;17.23;10.00;;;9.20;99.90;;;;;;5014349;28;20946;-56
2023/10/27 02:22:05;;;;;;;9.50;8.57;;;9.20;99.90;;;;;;5033367;28;20495;-56
2023/10/27 02:24:32;;;;;;;12.47;10.10;;;9.20;99.90;;;;;;5012291;28;20561;-56
2023/10/27 02:26:59;;;;;;;12.33;9.90;;;9.20;99.90;;;;;;5012692;28;20506;-56
2023/10/27 02:29:26;;;;;;;11.80;9.90;;;9.20;99.90;;;;;;5009945;28;20463;-55
2023/10/27 02:31:54;;;;;;;11.70;10.10;;;9.20;99.90;;;;;;5016810;28;20674;-56
2023/10/27 02:34:20;;;;;;;9.40;8.47;;;9.20;99.90;;;;;;5012135;28;20440;-58
2023/10/27 02:36:47;;;;;;;16.73;10.57;;;9.20;99.90;;;;;;5010063;28;20459;-55
2023/10/27 02:39:13;;;;;;;9.90;9.00;;;9.20;99.90;;;;;;5017414;28;20442;-56
2023/10/27 02:41:40;;;;;;;14.07;10.40;;;9.20;99.90;;;;;;5031905;28;20485;-56
2023/10/27 02:44:08;;;;;;;13.83;11.07;;;9.20;99.90;;;;;;5009914;28;20530;-56
2023/10/27 02:46:36;;;;;;;16.83;9.70;;;9.20;99.90;;;;;;5010115;28;20555;-56
2023/10/27 02:49:04;;;;;;;15.13;9.77;;;9.20;99.90;;;;;;4992630;28;20499;-56
2023/10/27 02:51:31;;;;;;;17.07;9.90;;;9.20;99.90;;;;;;4995756;28;20992;-55
2023/10/27 02:53:58;;;;;;;11.60;10.40;;;9.20;99.90;;;;;;5010069;28;20494;-56
2023/10/27 02:56:25;;;;;;;16.33;9.90;;;9.20;99.90;;;;;;5018749;28;20459;-56
2023/10/27 02:58:52;;;;;;;11.10;9.90;;;9.20;99.90;;;;;;5011729;28;20510;-56
2023/10/27 03:01:18;;;;;;;12.33;9.63;;;9.20;99.90;;;;;;5011481;28;20832;-56
2023/10/27 03:03:45;;;;;;;15.00;11.73;;;9.20;99.90;;;;;;5011775;28;20487;-56
2023/10/27 03:06:13;;;;;;;11.97;10.73;;;9.20;99.90;;;;;;5011838;28;20815;-56
2023/10/27 03:08:42;;;;;;;15.97;11.60;;;9.20;99.90;;;;;;5010442;28;20439;-56
2023/10/27 03:11:09;;;;;;;19.90;10.40;;;9.20;99.90;;;;;;5012560;28;20462;-55
2023/10/27 03:13:35;;;;;;;12.60;10.57;;;9.20;99.90;;;;;;5021242;28;20466;-56
2023/10/27 03:16:03;;;;;;;12.83;10.93;;;9.20;99.90;;;;;;5011185;28;20436;-56
2023/10/27 03:18:30;;;;;;;14.50;10.73;;;9.20;99.90;;;;;;5011642;28;20444;-56
2023/10/27 03:20:57;;;;;;;15.70;12.10;;;9.20;99.90;;;;;;5011821;28;20447;-56
2023/10/27 03:23:25;;;;;;;26.13;11.17;;;9.20;99.90;;;;;;5011882;28;20448;-56
2023/10/27 03:25:52;;;;;;;18.57;11.90;;;9.20;99.90;;;;;;5010335;28;21230;-56
2023/10/27 03:28:20;;;;;;;16.57;12.27;;;9.20;99.90;;;;;;5017380;28;20447;-57
2023/10/27 03:30:48;;;;;;;14.20;12.70;;;9.20;99.90;;;;;;5031138;28;20804;-55
2023/10/27 03:33:15;;;;;;;14.60;12.50;;;9.20;99.90;;;;;;5011682;28;20514;-56
2023/10/27 03:35:42;;;;;;;18.07;11.50;;;9.20;99.90;;;;;;5010997;28;20929;-56
2023/10/27 03:38:09;;;;;;;15.90;12.50;;;9.20;99.90;;;;;;5010329;28;20448;-56
2023/10/27 03:40:37;;;;;;;16.53;13.00;;;9.20;99.90;;;;;;5011469;28;20440;-56
2023/10/27 03:43:04;;;;;;;17.90;12.93;;;9.20;99.90;;;;;;5016678;28;20509;-56
2023/10/27 03:45:30;;;;;;;24.47;13.80;;;9.20;99.90;;;;;;5026475;28;20478;-57
2023/10/27 03:47:57;;;;;;;16.83;12.27;;;9.20;99.90;;;;;;5035065;28;20956;-55
2023/10/27 03:50:23;;;;;;;18.20;13.50;;;9.20;99.90;;;;;;5035330;28;20493;-56
2023/10/27 03:52:50;;;;;;;30.83;12.83;;;9.20;99.90;;;;;;5014516;28;20503;-57
2023/10/27 03:55:16;;;;;;;20.53;13.37;;;9.20;99.90;;;;;;5015092;28;20460;-55
2023/10/27 03:57:44;;;;;;;16.10;12.93;;;9.20;99.90;;;;;;5015446;28;20460;-56
2023/10/27 04:00:13;;;;;;;17.30;12.67;;;9.20;99.90;;;;;;5026380;28;20493;-55
2023/10/27 04:02:40;;;;;;;21.30;13.30;;;9.20;99.90;;;;;;5035057;28;20609;-59
2023/10/27 04:05:07;;;;;;;16.53;12.67;;;9.20;99.90;;;;;;5034826;28;20809;-59
2023/10/27 04:07:34;;;;;;;16.90;12.53;;;9.20;99.90;;;;;;5035812;28;20489;-60
2023/10/27 04:10:00;;;;;;;19.83;15.57;;;9.20;99.90;;;;;;5002424;28;20474;-60
2023/10/27 04:12:27;;;;;;;22.73;13.83;;;9.30;99.90;;;;;;4995181;28;20495;-60
2023/10/27 04:14:55;;;;;;;29.30;15.60;;;9.20;99.90;;;;;;4998920;28;20459;-60
2023/10/27 04:17:21;;;;;;;19.63;13.40;;;9.20;99.90;;;;;;5023563;28;20440;-60
2023/10/27 04:19:50;;;;;;;27.60;15.03;;;9.20;99.90;;;;;;5027101;28;20467;-60
2023/10/27 04:22:16;;;;;;;22.73;14.90;;;9.30;99.90;;;;;;5015324;28;21043;-60
2023/10/27 04:24:43;;;;;;;23.90;16.10;;;9.30;99.90;;;;;;5007330;28;20479;-60
2023/10/27 04:27:09;;;;;;;25.50;15.67;;;9.20;99.90;;;;;;5026072;28;20452;-60
2023/10/27 04:29:36;;;;;;;28.50;15.33;;;9.30;99.90;;;;;;5034419;28;20456;-60
2023/10/27 04:32:05;;;;;;;27.80;16.77;;;9.30;99.90;;;;;;5032091;28;20535;-60
2023/10/27 04:34:31;;;;;;;26.83;17.97;;;9.30;99.90;;;;;;5030356;28;20463;-61
2023/10/27 04:36:58;;;;;;;28.40;16.80;;;9.20;99.90;;;;;;5020702;28;20471;-59
2023/10/27 04:39:24;;;;;;;24.10;17.43;;;9.30;99.90;;;;;;5026820;28;20492;-60
2023/10/27 04:41:51;;;;;;;28.63;17.30;;;9.30;99.90;;;;;;5014506;28;20517;-57
2023/10/27 04:44:22;;;;;;;26.03;16.93;;;9.30;99.90;;;;;;5014239;28;20540;-57
2023/10/27 04:46:48;;;;;;;60.87;17.90;;;9.30;99.90;;;;;;5012064;28;20459;-58
2023/10/27 04:49:16;;;;;;;27.00;17.77;;;9.30;99.90;;;;;;5022233;28;20494;-58
2023/10/27 04:51:43;;;;;;;29.80;19.40;;;9.30;99.90;;;;;;5029828;28;20467;-57
2023/10/27 04:54:09;;;;;;;28.83;18.90;;;9.30;99.90;;;;;;4999629;28;20901;-57
2023/10/27 04:56:36;;;;;;;27.20;18.17;;;9.30;99.90;;;;;;5010304;28;20439;-57
2023/10/27 04:59:03;;;;;;;32.13;18.27;;;9.30;99.90;;;;;;5014023;28;20479;-57
2023/10/27 05:01:29;;;;;;;38.03;18.23;;;9.30;99.90;;;;;;5013549;28;20578;-57
2023/10/27 05:03:56;;;;;;;37.93;21.67;;;9.30;99.90;;;;;;5015400;28;20470;-57
2023/10/27 05:06:24;;;;;;;32.77;18.97;;;9.30;99.90;;;;;;5025049;28;20500;-58
2023/10/27 05:08:51;;;;;;;35.80;18.50;;;9.30;99.90;;;;;;5007874;28;20479;-58
2023/10/27 05:11:18;;;;;;;35.10;20.10;;;9.30;99.90;;;;;;5014043;28;20468;-57
2023/10/27 05:13:44;;;;;;;35.07;21.30;;;9.30;99.90;;;;;;5013755;28;20455;-57
2023/10/27 05:16:11;;;;;;;30.03;19.83;;;9.30;99.90;;;;;;5012229;28;20495;-57
2023/10/27 05:18:38;;;;;;;30.93;20.80;;;9.30;99.90;;;;;;5013375;28;20882;-57
2023/10/27 05:21:04;;;;;;;32.60;20.50;;;9.30;99.90;;;;;;5020436;28;20538;-56
2023/10/27 05:23:32;;;;;;;33.20;19.80;;;9.30;99.90;;;;;;5012537;28;20467;-57
2023/10/27 05:25:59;;;;;;;38.53;21.60;;;9.30;99.90;;;;;;5000561;28;20531;-57
2023/10/27 05:28:26;;;;;;;33.30;21.17;;;9.30;99.90;;;;;;4994133;28;20503;-58
2023/10/27 05:30:53;;;;;;;40.10;21.07;;;9.30;99.90;;;;;;5012157;28;21028;-56
2023/10/27 05:33:21;;;;;;;33.80;20.10;;;9.30;99.90;;;;;;5013883;28;20451;-57
2023/10/27 05:35:47;;;;;;;35.97;22.63;;;9.30;99.90;;;;;;5013453;28;20471;-57
2023/10/27 05:38:14;;;;;;;40.13;22.30;;;9.30;99.90;;;;;;5023348;28;20464;-56
2023/10/27 05:40:42;;;;;;;32.47;20.40;;;9.30;99.90;;;;;;5013373;28;20450;-57
2023/10/27 05:43:09;;;;;;;33.93;21.67;;;9.30;99.90;;;;;;5011968;28;21009;-57
2023/10/27 05:45:36;;;;;;;31.33;20.80;;;9.30;99.90;;;;;;5012855;28;20495;-57
2023/10/27 05:48:03;;;;;;;30.20;21.10;;;9.30;99.90;;;;;;5013147;28;20531;-58
2023/10/27 05:50:29;;;;;;;33.97;21.73;;;9.30;99.90;;;;;;5012909;28;20439;-57
2023/10/27 05:52:56;;;;;;;37.60;22.20;;;9.30;99.90;;;;;;5011287;28;20518;-58
2023/10/27 05:55:24;;;;;;;57.00;33.17;;;9.40;99.90;;;;;;5019682;28;21007;-57
2023/10/27 05:57:52;;;;;;;77.17;41.80;;;9.30;99.90;;;;;;5012881;28;20456;-57
2023/10/27 06:00:20;;;;;;;73.37;43.97;;;9.30;99.90;;;;;;5012688;28;20443;-57
2023/10/27 06:02:48;;;;;;;75.80;48.13;;;9.30;99.90;;;;;;5012544;28;20482;-58
2023/10/27 06:05:15;;;;;;;64.40;40.50;;;9.30;99.90;;;;;;5011637;28;20503;-58
2023/10/27 06:07:41;;;;;;;69.70;43.30;;;9.30;99.90;;;;;;5011137;28;20521;-58
2023/10/27 06:10:09;;;;;;;65.67;42.27;;;9.30;99.90;;;;;;5012367;28;20466;-55
2023/10/27 06:12:36;;;;;;;68.63;38.50;;;9.40;99.90;;;;;;5028458;28;20459;-56
2023/10/27 06:15:04;;;;;;;50.63;32.90;;;9.30;99.90;;;;;;5032192;28;20443;-56
2023/10/27 06:17:32;;;;;;;53.10;35.40;;;9.30;99.90;;;;;;5032584;28;20450;-56
2023/10/27 06:20:01;;;;;;;55.33;37.20;;;9.30;99.90;;;;;;5028388;28;20537;-56
2023/10/27 06:22:28;;;;;;;45.00;31.97;;;9.40;99.90;;;;;;5012387;28;20833;-56
2023/10/27 06:24:54;;;;;;;44.10;28.70;;;9.30;99.90;;;;;;5012340;28;20533;-56
2023/10/27 06:27:21;;;;;;;36.80;27.53;;;9.30;99.90;;;;;;5011532;28;20896;-56
2023/10/27 06:29:47;;;;;;;36.60;27.77;;;9.40;99.90;;;;;;5020016;28;20494;-56
2023/10/27 06:32:16;;;;;;;36.70;27.47;;;9.40;99.90;;;;;;5032798;28;21035;-56
2023/10/27 06:34:43;;;;;;;30.13;23.30;;;9.40;99.90;;;;;;5021338;28;20811;-56
2023/10/27 06:37:10;;;;;;;37.13;24.47;;;9.40;99.90;;;;;;5011970;28;20774;-57
2023/10/27 06:39:36;;;;;;;32.70;23.70;;;9.40;99.90;;;;;;5010916;28;20463;-56
2023/10/27 06:42:04;;;;;;;40.03;22.33;;;9.40;99.90;;;;;;5011862;28;20464;-57
2023/10/27 06:44:31;;;;;;;31.73;22.43;;;9.40;99.90;;;;;;5010731;28;20517;-56
2023/10/27 06:46:57;;;;;;;25.47;18.63;;;9.40;99.90;;;;;;5014355;28;20499;-56
2023/10/27 06:49:25;;;;;;;31.77;20.30;;;9.40;99.90;;;;;;5010609;28;20854;-57
2023/10/27 06:51:52;;;;;;;28.90;20.60;;;9.40;99.90;;;;;;5011665;28;20463;-56
2023/10/27 06:54:18;;;;;;;27.17;21.57;;;9.40;99.90;;;;;;5010785;28;20525;-56
2023/10/27 06:56:45;;;;;;;34.10;19.47;;;9.40;99.90;;;;;;5011487;28;20444;-56
2023/10/27 06:59:11;;;;;;;24.87;18.90;;;9.40;99.90;;;;;;5010499;28;20468;-56
2023/10/27 07:01:38;;;;;;;24.60;19.70;;;9.40;99.90;;;;;;5019174;28;20892;-56
2023/10/27 07:04:05;;;;;;;28.47;19.30;;;9.40;99.90;;;;;;5021152;28;20977;-56
2023/10/27 07:06:33;;;;;;;30.33;19.07;;;9.40;99.90;;;;;;5010531;28;20910;-56
2023/10/27 07:08:59;;;;;;;27.30;20.27;;;9.40;99.90;;;;;;5011165;28;20857;-56
2023/10/27 07:11:26;;;;;;;24.50;19.00;;;9.50;99.90;;;;;;5022179;28;20471;-56
2023/10/27 07:13:52;;;;;;;33.23;20.50;;;9.50;99.90;;;;;;5019520;28;20933;-56
2023/10/27 07:16:19;;;;;;;25.80;18.77;;;9.50;99.90;;;;;;5016954;28;20831;-57
2023/10/27 07:18:46;;;;;;;25.10;18.90;;;9.50;99.90;;;;;;5023244;28;20902;-56
2023/10/27 07:21:12;;;;;;;25.43;20.27;;;9.40;99.90;;;;;;5026843;28;20466;-57
2023/10/27 07:23:40;;;;;;;29.43;19.73;;;9.40;99.90;;;;;;5019196;28;20443;-56
2023/10/27 07:26:14;;;;;;;24.77;18.87;;;9.50;99.90;;;;;;5007328;28;20475;-57
2023/10/27 07:28:41;;;;;;;23.67;19.17;;;9.50;99.90;;;;;;5022093;28;20463;-55
2023/10/27 07:31:08;;;;;;;20.77;17.37;;;9.50;99.90;;;;;;5022049;28;20475;-56
2023/10/27 07:33:35;;;;;;;25.43;19.13;;;9.50;99.90;;;;;;5022964;28;20463;-56
2023/10/27 07:36:02;;;;;;;26.83;17.93;;;9.50;99.90;;;;;;5017817;28;20443;-56
2023/10/27 07:38:30;;;;;;;24.70;18.30;;;9.40;99.90;;;;;;5020062;28;20929;-57
2023/10/27 07:40:59;;;;;;;23.20;18.03;;;9.50;99.90;;;;;;5023154;28;20454;-58
2023/10/27 07:43:26;;;;;;;31.03;18.47;;;9.50;99.90;;;;;;5014853;28;20447;-56
2023/10/27 07:45:54;;;;;;;26.77;18.53;;;9.50;99.90;;;;;;5014385;28;20522;-56
2023/10/27 07:48:20;;;;;;;25.80;17.67;;;9.50;99.90;;;;;;5026578;28;20469;-56
2023/10/27 07:50:47;;;;;;;24.00;17.27;;;9.40;99.90;;;;;;5023080;28;21046;-56
2023/10/27 07:53:14;;;;;;;27.47;18.60;;;9.40;99.90;;;;;;5014309;28;20470;-56
2023/10/27 07:55:40;;;;;;;24.20;18.87;;;9.40;99.90;;;;;;5013307;28;20946;-57
2023/10/27 07:58:08;;;;;;;25.93;17.60;;;9.50;99.90;;;;;;5006678;28;20949;-56
2023/10/27 08:00:35;;;;;;;23.20;17.57;;;9.40;99.90;;;;;;5013937;28;20463;-56
2023/10/27 08:03:02;;;;;;;24.83;16.93;;;9.50;99.90;;;;;;5022478;28;20561;-57
2023/10/27 08:05:29;;;;;;;28.13;16.37;;;9.50;99.90;;;;;;5019788;28;20545;-57
2023/10/27 08:07:56;;;;;;;38.47;18.10;;;9.40;99.90;;;;;;5016542;28;21007;-56
2023/10/27 08:10:24;;;;;;;28.93;18.17;;;9.40;99.90;;;;;;5025620;28;20453;-56
2023/10/27 08:12:51;;;;;;;22.03;17.07;;;9.50;99.90;;;;;;5024654;28;20486;-57
2023/10/27 08:15:19;;;;;;;26.47;17.90;;;9.50;99.90;;;;;;5020109;28;20518;-56
2023/10/27 08:17:45;;;;;;;23.47;17.03;;;9.50;99.90;;;;;;5022907;28;20850;-56
2023/10/27 08:20:12;;;;;;;19.67;17.10;;;9.50;99.90;;;;;;5013252;28;20467;-57
2023/10/27 08:22:39;;;;;;;21.50;17.50;;;9.50;99.90;;;;;;5021529;28;20981;-56
2023/10/27 08:25:05;;;;;;;22.20;15.30;;;9.50;99.90;;;;;;5022303;28;20772;-56
2023/10/27 08:27:32;;;;;;;22.10;16.10;;;9.50;99.90;;;;;;5019165;28;20471;-56
2023/10/27 08:29:59;;;;;;;22.00;17.00;;;9.60;99.90;;;;;;5034177;28;20450;-57
2023/10/27 08:32:27;;;;;;;18.53;15.70;;;9.60;99.90;;;;;;5017976;28;20491;-56
2023/10/27 08:34:54;;;;;;;22.63;15.60;;;9.60;99.90;;;;;;5013267;28;21144;-56
2023/10/27 08:37:20;;;;;;;22.37;15.47;;;9.70;99.90;;;;;;5023274;28;20448;-56
2023/10/27 08:39:47;;;;;;;21.00;15.57;;;9.70;99.90;;;;;;5012679;28;20962;-56
2023/10/27 08:42:14;;;;;;;19.03;14.53;;;9.70;99.90;;;;;;5012828;28;20459;-56
2023/10/27 08:44:42;;;;;;;18.70;15.10;;;9.70;99.90;;;;;;5014052;28;20885;-56
2023/10/27 08:47:09;;;;;;;15.73;13.50;;;9.70;99.90;;;;;;5009239;28;20494;-56
2023/10/27 08:49:37;;;;;;;16.33;14.37;;;9.70;99.90;;;;;;5024382;28;20578;-56
2023/10/27 08:52:05;;;;;;;17.30;13.90;;;9.70;99.90;;;;;;5022210;28;20526;-56
2023/10/27 08:54:32;;;;;;;19.10;14.30;;;9.70;99.90;;;;;;5020535;28;20447;-56
2023/10/27 08:56:58;;;;;;;17.83;13.90;;;9.70;99.90;;;;;;5012086;28;20823;-56
2023/10/27 08:59:25;;;;;;;17.50;14.20;;;9.70;99.90;;;;;;5013006;28;20525;-56
2023/10/27 09:01:54;;;;;;;15.93;14.20;;;9.70;99.90;;;;;;5021693;28;20491;-56
2023/10/27 09:04:23;;;;;;;17.20;14.17;;;9.70;99.90;;;;;;5023381;28;20467;-57
2023/10/27 09:06:51;;;;;;;31.03;14.30;;;9.80;99.90;;;;;;5024682;28;20518;-56
2023/10/27 09:09:19;;;;;;;28.20;14.40;;;9.70;99.90;;;;;;5033421;28;20807;-57
2023/10/27 09:11:48;;;;;;;21.33;13.43;;;9.80;99.90;;;;;;5032838;28;20471;-56
2023/10/27 09:14:19;;;;;;;18.00;13.73;;;9.80;99.90;;;;;;5014233;28;20496;-55
2023/10/27 09:16:45;;;;;;;21.70;14.97;;;9.80;99.90;;;;;;5022336;28;20808;-56
2023/10/27 09:19:19;;;;;;;17.60;15.27;;;9.90;99.90;;;;;;5019647;28;20458;-56
2023/10/27 09:21:46;;;;;;;15.13;13.20;;;9.90;99.90;;;;;;5024485;28;20813;-56
2023/10/27 09:24:21;;;;;;;19.23;14.50;;;9.90;99.90;;;;;;5013267;28;20918;-56
2023/10/27 09:26:48;;;;;;;16.17;13.20;;;9.90;99.90;;;;;;5010624;28;20482;-56
2023/10/27 09:29:15;;;;;;;16.77;14.10;;;9.90;99.90;;;;;;5022326;28;20432;-56
2023/10/27 09:31:42;;;;;;;16.07;13.50;;;9.80;99.90;;;;;;5020752;28;20614;-56
2023/10/27 09:34:20;;;;;;;19.30;13.00;;;9.80;99.90;;;;;;5015519;28;20797;-56
2023/10/27 09:36:48;;;;;;;16.47;12.90;;;9.80;99.90;;;;;;5032475;28;20522;-56
2023/10/27 09:39:18;;;;;;;19.53;14.03;;;9.90;99.90;;;;;;5031733;28;20809;-56
2023/10/27 09:41:54;;;;;;;19.30;13.77;;;9.90;99.90;;;;;;5023011;28;20475;-55
2023/10/27 09:44:21;;;;;;;16.53;13.30;;;9.90;99.90;;;;;;5017518;28;20944;-56
2023/10/27 09:46:52;;;;;;;13.83;11.90;;;9.90;99.90;;;;;;5013917;28;20585;-56
2023/10/27 09:49:26;;;;;;;17.07;14.40;;;9.90;99.90;;;;;;5012229;28;20562;-56
2023/10/27 09:51:58;;;;;;;18.60;14.73;;;9.90;99.90;;;;;;5015922;28;20459;-56
2023/10/27 09:54:30;;;;;;;16.43;13.77;;;9.90;99.90;;;;;;5018752;28;20493;-56
2023/10/27 09:56:59;;;;;;;20.53;15.60;;;9.90;99.90;;;;;;5013861;28;20444;-56
2023/10/27 09:59:26;;;;;;;19.87;14.50;;;9.80;99.90;;;;;;5002926;28;20474;-56
2023/10/27 10:01:53;;;;;;;27.60;20.57;;;9.80;99.90;;;;;;5011651;28;20492;-57
2023/10/27 10:04:53;;;;;;;22.27;17.93;;;9.90;99.90;;;;;;5020622;28;20444;-58
2023/10/27 10:07:52;;;;;;;17.00;14.90;;;9.90;99.90;;;;;;5015474;28;20487;-59
2023/10/27 10:10:29;;;;;;;20.30;16.97;;;9.80;99.90;;;;;;5008170;28;20839;-66
2023/10/27 10:13:08;;;;;;;21.40;17.73;;;9.80;99.90;;;;;;5009693;28;20475;-65
2023/10/27 10:15:35;;;;;;;25.57;18.00;;;9.80;99.90;;;;;;5005747;28;20521;-65
2023/10/27 10:18:03;;;;;;;25.63;20.13;;;9.80;99.90;;;;;;5018824;28;20963;-64
2023/10/27 10:20:59;;;;;;;18.90;16.70;;;9.90;99.90;;;;;;5026433;28;20500;-65
2023/10/27 10:23:48;;;;;;;24.60;18.50;;;9.90;99.90;;;;;;5011365;28;20534;-63
2023/10/27 10:26:16;;;;;;;22.67;19.00;;;9.90;99.90;;;;;;5030856;28;20489;-65
2023/10/27 10:28:46;;;;;;;17.40;15.13;;;10.00;99.90;;;;;;5013796;28;20466;-65
2023/10/27 10:31:23;;;;;;;19.07;16.70;;;9.90;99.90;;;;;;5020138;28;20544;-65
2023/10/27 10:33:51;;;;;;;19.50;14.83;;;9.90;99.90;;;;;;5018426;28;20462;-64
2023/10/27 10:36:26;;;;;;;20.50;16.60;;;10.00;99.90;;;;;;5027070;28;20543;-65
2023/10/27 10:39:00;;;;;;;17.03;15.00;;;10.00;99.90;;;;;;5012046;28;20482;-65
2023/10/27 10:42:03;;;;;;;18.20;15.40;;;10.00;99.90;;;;;;5011949;28;20526;-65
2023/10/27 10:44:31;;;;;;;19.10;14.60;;;10.00;99.90;;;;;;5008915;28;20543;-64
2023/10/27 10:47:00;;;;;;;17.70;15.80;;;10.10;99.90;;;;;;5010272;28;20897;-65
2023/10/27 10:49:30;;;;;;;19.50;16.37;;;10.00;99.90;;;;;;5009158;28;20474;-65
2023/10/27 10:51:58;;;;;;;16.70;15.00;;;10.00;99.90;;;;;;5020121;28;20485;-65
2023/10/27 10:54:32;;;;;;;16.50;14.47;;;10.00;99.90;;;;;;5016702;28;20463;-64
2023/10/27 10:57:06;;;;;;;18.90;15.23;;;10.00;99.90;;;;;;5011681;28;20451;-64
2023/10/27 10:59:33;;;;;;;18.50;15.87;;;10.00;99.90;;;;;;5008995;28;20471;-65
2023/10/27 11:02:01;;;;;;;21.70;16.20;;;10.00;99.90;;;;;;5018333;28;20490;-65
2023/10/27 11:04:32;;;;;;;26.50;21.23;;;9.90;99.90;;;;;;5019641;28;20460;-64
2023/10/27 11:07:00;;;;;;;17.40;15.40;;;9.90;99.90;;;;;;5019595;28;20506;-64
2023/10/27 11:09:27;;;;;;;24.37;17.60;;;9.90;99.90;;;;;;5017194;28;20542;-64
2023/10/27 11:11:55;;;;;;;19.70;16.20;;;9.90;99.90;;;;;;5011128;28;20521;-65
2023/10/27 11:14:23;;;;;;;27.00;14.83;;;10.00;99.90;;;;;;5009532;28;20467;-65
2023/10/27 11:16:58;;;;;;;19.10;15.30;;;10.00;99.90;;;;;;5010425;28;20529;-65
2023/10/27 11:19:25;;;;;;;15.17;13.53;;;10.00;99.90;;;;;;5018458;28;20840;-65
2023/10/27 11:21:53;;;;;;;17.90;15.30;;;10.00;99.90;;;;;;5014579;28;20475;-65
2023/10/27 11:24:20;;;;;;;16.93;14.83;;;10.00;99.90;;;;;;5019101;28;20468;-65
2023/10/27 11:26:46;;;;;;;25.13;19.00;;;10.00;99.90;;;;;;5018441;28;20526;-65
2023/10/27 11:29:13;;;;;;;21.10;17.43;;;10.00;99.90;;;;;;5019465;28;20440;-64
2023/10/27 11:31:42;;;;;;;20.83;16.73;;;10.00;99.90;;;;;;5000756;28;20555;-64
2023/10/27 11:34:09;;;;;;;19.63;16.83;;;10.00;99.90;;;;;;5018398;28;20534;-64
2023/10/27 11:36:38;;;;;;;15.50;13.90;;;10.00;99.90;;;;;;5019269;28;20440;-64
2023/10/27 11:39:15;;;;;;;16.47;14.10;;;10.00;99.90;;;;;;5011274;28;20510;-64
2023/10/27 11:41:42;;;;;;;19.13;16.23;;;10.00;99.90;;;;;;5011295;28;20472;-64
2023/10/27 11:44:09;;;;;;;17.30;13.63;;;10.00;99.90;;;;;;5012605;28;20518;-66
2023/10/27 11:46:35;;;;;;;16.50;14.77;;;10.00;99.90;;;;;;5021596;28;21109;-64
2023/10/27 11:49:03;;;;;;;16.53;14.50;;;10.10;99.90;;;;;;5016996;28;20868;-66
2023/10/27 11:51:30;;;;;;;19.23;13.70;;;10.10;99.90;;;;;;5019493;28;20472;-65
2023/10/27 11:53:58;;;;;;;15.83;14.13;;;10.10;99.90;;;;;;5011284;28;20450;-65
2023/10/27 11:56:25;;;;;;;18.33;14.40;;;10.10;99.90;;;;;;5011156;28;20443;-64
2023/10/27 11:58:51;;;;;;;19.33;13.90;;;10.10;99.90;;;;;;5011286;28;20443;-64
2023/10/27 12:01:19;;;;;;;16.03;13.90;;;10.10;99.90;;;;;;5014279;28;20556;-65
2023/10/27 12:03:46;;;;;;;18.60;14.50;;;10.10;99.90;;;;;;5014069;28;20463;-64
2023/10/27 12:06:14;;;;;;;20.67;12.57;;;10.00;99.90;;;;;;5026042;28;20627;-64
2023/10/27 12:08:40;;;;;;;20.10;14.13;;;10.00;99.90;;;;;;5034600;28;20509;-64
2023/10/27 12:11:07;;;;;;;17.30;14.53;;;10.00;99.90;;;;;;5034322;28;20516;-64
2023/10/27 12:13:34;;;;;;;21.67;13.60;;;10.00;99.90;;;;;;5020441;28;20440;-64
2023/10/27 12:16:01;;;;;;;19.80;14.80;;;10.00;99.90;;;;;;5018562;28;20984;-65
2023/10/27 12:18:27;;;;;;;20.73;12.50;;;10.00;99.90;;;;;;5013145;28;20546;-66
2023/10/27 12:20:54;;;;;;;14.73;13.13;;;10.00;99.90;;;;;;5005177;28;20486;-65
2023/10/27 12:23:22;;;;;;;17.27;15.17;;;10.00;99.90;;;;;;5014603;28;20444;-64
2023/10/27 12:25:49;;;;;;;14.83;13.27;;;10.00;99.90;;;;;;5016490;28;20498;-64
2023/10/27 12:28:16;;;;;;;17.20;13.63;;;10.00;99.90;;;;;;5023273;28;20566;-63
2023/10/27 12:30:42;;;;;;;15.20;13.00;;;10.00;99.90;;;;;;5013199;28;20467;-64
2023/10/27 12:33:09;;;;;;;16.50;12.27;;;9.90;99.90;;;;;;5030113;28;20504;-64
2023/10/27 12:35:37;;;;;;;15.90;12.90;;;10.00;99.90;;;;;;5019650;28;20444;-65
2023/10/27 12:38:04;;;;;;;17.07;12.43;;;10.00;99.90;;;;;;5005012;28;20460;-65
2023/10/27 12:40:34;;;;;;;14.77;12.47;;;9.90;99.90;;;;;;5019662;28;20450;-65